Terminal Aerodrome Forecast
Issued by NWS

Home | Current Version | Previous Version | Text Only | Print | Product List | Glossary On
Versions: 1 2 3 4 5 6 7 8 9 10 11 12 13
000
FTUS46 KSGX 311407 AAA
TAFONT
TAF AMD
KONT 311407Z 3114/0118 23005KT P6SM FEW010
     FM312100 25013KT P6SM SKC
     FM010400 24006KT P6SM SKC
     FM010900 VRB04KT P6SM OVC012
     FM011600 VRB03KT P6SM SCT015=

USA.gov is the U.S. government's official web portal to all federal, state and local government web resources and services.